CheckWX is a tool to help pilots better visualize weather data.  It is not intended as a substitute for an official pre-flight weather briefing.

14:13:48 UTC

KPNC METAR
Ponca City Regional Airport
Ponca City, Oklahoma, USA
Current

21 mins ago

KPNC 221353Z AUTO 18008KT 10SM BKN028 20/14 A2994 RMK AO2 SLP128 T02000144
Observed
Apr-22 @ 13:53 UTC
Wind
  • 180° at 8 KTS
Visibility
10 SM
Flight Rules
MVFR
Cloud Levels
  • Broken at 2,800' AGL
Temperature
20°C / 68°F
Dewpoint
14°C / 57°F
Humidity
69%
Altimeter
29.94" Hg
Pressure
1013.92 hPa
Previous

1 hour ago

KPNC 221253Z AUTO 16007KT 10SM CLR 18/14 A2993 RMK AO2 SLP124 T01830144
Observed
Apr-22 @ 12:53 UTC
Wind
  • 160° at 7 KTS
Visibility
10 SM
Flight Rules
VFR
Cloud Levels
  • Clear skies
Temperature
18°C / 64°F
Dewpoint
14°C / 57°F
Humidity
78%
Altimeter
29.93" Hg
Pressure
1013.52 hPa
Previous

2 hours ago

KPNC 221239Z AUTO 16008KT 10SM SCT029 18/14 A2992 RMK AO2 T01780139
Observed
Apr-22 @ 12:39 UTC
Wind
  • 160° at 8 KTS
Visibility
10 SM
Flight Rules
VFR
Cloud Levels
  • Scattered at 2,900' AGL
Temperature
18°C / 64°F
Dewpoint
14°C / 57°F
Humidity
78%
Altimeter
29.92" Hg
Pressure
1013.22 hPa